sensor_id;sensor_type;location;lat;lon;timestamp;P1;durP1;ratioP1;P2;durP2;ratioP2
68192;SDS011;55012;47.562;18.414;2023-08-21T00:00:05;24.60;;;19.15;;
68192;SDS011;55012;47.562;18.414;2023-08-21T00:02:30;22.15;;;19.17;;
68192;SDS011;55012;47.562;18.414;2023-08-21T00:04:56;24.38;;;19.27;;
68192;SDS011;55012;47.562;18.414;2023-08-21T00:07:22;24.85;;;19.25;;
68192;SDS011;55012;47.562;18.414;2023-08-21T00:09:48;25.65;;;18.15;;
68192;SDS011;55012;47.562;18.414;2023-08-21T00:12:13;25.13;;;19.35;;
68192;SDS011;55012;47.562;18.414;2023-08-21T00:14:39;25.25;;;19.92;;
68192;SDS011;55012;47.562;18.414;2023-08-21T00:17:04;26.40;;;20.13;;
68192;SDS011;55012;47.562;18.414;2023-08-21T00:19:30;26.52;;;19.65;;
68192;SDS011;55012;47.562;18.414;2023-08-21T00:21:55;26.73;;;19.33;;
68192;SDS011;55012;47.562;18.414;2023-08-21T00:24:21;24.67;;;19.30;;
68192;SDS011;55012;47.562;18.414;2023-08-21T00:26:46;25.88;;;18.85;;
68192;SDS011;55012;47.562;18.414;2023-08-21T00:29:12;26.60;;;18.75;;
68192;SDS011;55012;47.562;18.414;2023-08-21T00:31:37;22.45;;;17.23;;
68192;SDS011;55012;47.562;18.414;2023-08-21T00:34:03;20.48;;;16.67;;
68192;SDS011;55012;47.562;18.414;2023-08-21T00:36:28;20.27;;;15.98;;
68192;SDS011;55012;47.562;18.414;2023-08-21T00:38:54;23.95;;;17.65;;
68192;SDS011;55012;47.562;18.414;2023-08-21T00:41:19;24.27;;;18.05;;
68192;SDS011;55012;47.562;18.414;2023-08-21T00:43:45;25.58;;;17.95;;
68192;SDS011;55012;47.562;18.414;2023-08-21T00:46:10;20.45;;;16.88;;
68192;SDS011;55012;47.562;18.414;2023-08-21T00:48:36;25.98;;;18.65;;
68192;SDS011;55012;47.562;18.414;2023-08-21T00:51:02;28.15;;;19.63;;
68192;SDS011;55012;47.562;18.414;2023-08-21T00:53:30;23.30;;;17.90;;
68192;SDS011;55012;47.562;18.414;2023-08-21T00:55:56;24.17;;;17.52;;
68192;SDS011;55012;47.562;18.414;2023-08-21T00:58:21;24.25;;;18.02;;
68192;SDS011;55012;47.562;18.414;2023-08-21T01:00:47;28.08;;;19.15;;
68192;SDS011;55012;47.562;18.414;2023-08-21T01:03:15;28.65;;;20.13;;
68192;SDS011;55012;47.562;18.414;2023-08-21T01:05:40;29.75;;;20.45;;
68192;SDS011;55012;47.562;18.414;2023-08-21T01:08:07;28.73;;;21.02;;
68192;SDS011;55012;47.562;18.414;2023-08-21T01:10:48;28.08;;;20.23;;
68192;SDS011;55012;47.562;18.414;2023-08-21T01:15:59;26.42;;;19.70;;
68192;SDS011;55012;47.562;18.414;2023-08-21T01:18:25;28.55;;;19.40;;
68192;SDS011;55012;47.562;18.414;2023-08-21T01:20:52;25.13;;;19.85;;
68192;SDS011;55012;47.562;18.414;2023-08-21T01:23:31;26.52;;;20.35;;
68192;SDS011;55012;47.562;18.414;2023-08-21T01:25:59;27.70;;;20.40;;
68192;SDS011;55012;47.562;18.414;2023-08-21T01:28:25;29.40;;;21.27;;
68192;SDS011;55012;47.562;18.414;2023-08-21T01:30:52;28.83;;;21.13;;
68192;SDS011;55012;47.562;18.414;2023-08-21T01:33:26;26.80;;;20.40;;
68192;SDS011;55012;47.562;18.414;2023-08-21T01:35:54;28.33;;;20.60;;
68192;SDS011;55012;47.562;18.414;2023-08-21T01:38:22;28.73;;;20.55;;
68192;SDS011;55012;47.562;18.414;2023-08-21T01:40:49;30.92;;;21.77;;
68192;SDS011;55012;47.562;18.414;2023-08-21T01:43:14;28.23;;;20.27;;
68192;SDS011;55012;47.562;18.414;2023-08-21T01:45:40;27.52;;;20.55;;
68192;SDS011;55012;47.562;18.414;2023-08-21T01:48:05;29.63;;;20.67;;
68192;SDS011;55012;47.562;18.414;2023-08-21T01:50:31;27.77;;;20.58;;
68192;SDS011;55012;47.562;18.414;2023-08-21T01:52:57;27.00;;;20.30;;
68192;SDS011;55012;47.562;18.414;2023-08-21T01:55:22;29.38;;;20.65;;
68192;SDS011;55012;47.562;18.414;2023-08-21T01:57:48;28.67;;;20.77;;
68192;SDS011;55012;47.562;18.414;2023-08-21T02:00:13;28.80;;;20.60;;
68192;SDS011;55012;47.562;18.414;2023-08-21T02:02:39;24.95;;;19.25;;
68192;SDS011;55012;47.562;18.414;2023-08-21T02:05:04;25.00;;;19.00;;
68192;SDS011;55012;47.562;18.414;2023-08-21T02:07:30;25.10;;;19.33;;
68192;SDS011;55012;47.562;18.414;2023-08-21T02:09:56;25.77;;;19.30;;
68192;SDS011;55012;47.562;18.414;2023-08-21T02:12:21;26.17;;;18.95;;
68192;SDS011;55012;47.562;18.414;2023-08-21T02:14:47;25.90;;;18.63;;
68192;SDS011;55012;47.562;18.414;2023-08-21T02:17:12;23.48;;;18.75;;
68192;SDS011;55012;47.562;18.414;2023-08-21T02:19:37;23.58;;;19.13;;
68192;SDS011;55012;47.562;18.414;2023-08-21T02:22:03;25.65;;;19.50;;
68192;SDS011;55012;47.562;18.414;2023-08-21T02:24:28;24.48;;;18.23;;
68192;SDS011;55012;47.562;18.414;2023-08-21T02:26:54;22.90;;;17.60;;
68192;SDS011;55012;47.562;18.414;2023-08-21T02:29:20;24.25;;;16.77;;
68192;SDS011;55012;47.562;18.414;2023-08-21T02:31:45;20.13;;;16.13;;
68192;SDS011;55012;47.562;18.414;2023-08-21T02:34:11;19.13;;;15.85;;
68192;SDS011;55012;47.562;18.414;2023-08-21T02:36:36;17.63;;;14.75;;
68192;SDS011;55012;47.562;18.414;2023-08-21T02:39:01;21.05;;;16.23;;
68192;SDS011;55012;47.562;18.414;2023-08-21T02:41:28;23.48;;;15.55;;
68192;SDS011;55012;47.562;18.414;2023-08-21T02:43:54;22.35;;;15.77;;
68192;SDS011;55012;47.562;18.414;2023-08-21T02:46:19;20.42;;;15.13;;
68192;SDS011;55012;47.562;18.414;2023-08-21T02:48:45;19.50;;;15.60;;
68192;SDS011;55012;47.562;18.414;2023-08-21T02:51:10;20.48;;;15.20;;
68192;SDS011;55012;47.562;18.414;2023-08-21T02:53:36;17.80;;;14.88;;
68192;SDS011;55012;47.562;18.414;2023-08-21T02:56:01;20.13;;;15.13;;
68192;SDS011;55012;47.562;18.414;2023-08-21T02:58:27;19.05;;;15.45;;
68192;SDS011;55012;47.562;18.414;2023-08-21T03:00:53;18.38;;;15.10;;
68192;SDS011;55012;47.562;18.414;2023-08-21T03:03:18;20.15;;;15.90;;
68192;SDS011;55012;47.562;18.414;2023-08-21T03:05:44;18.15;;;15.13;;
68192;SDS011;55012;47.562;18.414;2023-08-21T03:08:09;17.55;;;15.13;;
68192;SDS011;55012;47.562;18.414;2023-08-21T03:10:35;18.88;;;14.77;;
68192;SDS011;55012;47.562;18.414;2023-08-21T03:13:02;19.35;;;14.93;;
68192;SDS011;55012;47.562;18.414;2023-08-21T03:15:27;18.40;;;15.10;;
68192;SDS011;55012;47.562;18.414;2023-08-21T03:17:55;17.35;;;14.48;;
68192;SDS011;55012;47.562;18.414;2023-08-21T03:20:20;17.33;;;15.05;;
68192;SDS011;55012;47.562;18.414;2023-08-21T03:22:46;19.23;;;15.00;;
68192;SDS011;55012;47.562;18.414;2023-08-21T03:25:12;17.52;;;14.98;;
68192;SDS011;55012;47.562;18.414;2023-08-21T03:27:37;19.70;;;14.75;;
68192;SDS011;55012;47.562;18.414;2023-08-21T03:30:05;19.92;;;15.13;;
68192;SDS011;55012;47.562;18.414;2023-08-21T03:32:32;17.67;;;15.48;;
68192;SDS011;55012;47.562;18.414;2023-08-21T03:34:58;18.70;;;15.57;;
68192;SDS011;55012;47.562;18.414;2023-08-21T03:37:24;17.13;;;15.02;;
68192;SDS011;55012;47.562;18.414;2023-08-21T03:39:49;20.00;;;15.52;;
68192;SDS011;55012;47.562;18.414;2023-08-21T03:42:15;18.75;;;15.25;;
68192;SDS011;55012;47.562;18.414;2023-08-21T03:44:40;22.63;;;16.75;;
68192;SDS011;55012;47.562;18.414;2023-08-21T03:47:06;24.30;;;18.23;;
68192;SDS011;55012;47.562;18.414;2023-08-21T03:49:32;24.58;;;18.02;;
68192;SDS011;55012;47.562;18.414;2023-08-21T03:51:57;22.48;;;16.88;;
68192;SDS011;55012;47.562;18.414;2023-08-21T03:54:22;22.58;;;16.33;;
68192;SDS011;55012;47.562;18.414;2023-08-21T03:56:48;21.45;;;16.48;;
68192;SDS011;55012;47.562;18.414;2023-08-21T03:59:13;23.63;;;17.67;;
68192;SDS011;55012;47.562;18.414;2023-08-21T04:01:39;25.00;;;17.80;;
68192;SDS011;55012;47.562;18.414;2023-08-21T04:04:04;25.25;;;17.45;;
68192;SDS011;55012;47.562;18.414;2023-08-21T04:06:30;25.10;;;19.33;;
68192;SDS011;55012;47.562;18.414;2023-08-21T04:08:55;23.65;;;17.92;;
68192;SDS011;55012;47.562;18.414;2023-08-21T04:11:20;24.90;;;17.23;;
68192;SDS011;55012;47.562;18.414;2023-08-21T04:13:46;25.25;;;16.23;;
68192;SDS011;55012;47.562;18.414;2023-08-21T04:16:11;21.75;;;15.82;;
68192;SDS011;55012;47.562;18.414;2023-08-21T04:18:37;20.85;;;15.57;;
68192;SDS011;55012;47.562;18.414;2023-08-21T04:21:03;22.95;;;15.88;;
68192;SDS011;55012;47.562;18.414;2023-08-21T04:23:29;19.10;;;14.50;;
68192;SDS011;55012;47.562;18.414;2023-08-21T04:25:59;24.20;;;15.50;;
68192;SDS011;55012;47.562;18.414;2023-08-21T04:28:31;21.33;;;15.13;;
68192;SDS011;55012;47.562;18.414;2023-08-21T04:30:57;20.17;;;15.38;;
68192;SDS011;55012;47.562;18.414;2023-08-21T04:33:27;22.80;;;16.05;;
68192;SDS011;55012;47.562;18.414;2023-08-21T04:35:53;23.48;;;16.17;;
68192;SDS011;55012;47.562;18.414;2023-08-21T04:38:19;21.98;;;16.50;;
68192;SDS011;55012;47.562;18.414;2023-08-21T04:40:44;23.67;;;16.95;;
68192;SDS011;55012;47.562;18.414;2023-08-21T04:43:10;22.55;;;16.60;;
68192;SDS011;55012;47.562;18.414;2023-08-21T04:45:35;25.70;;;17.98;;
68192;SDS011;55012;47.562;18.414;2023-08-21T04:48:03;25.67;;;18.20;;
68192;SDS011;55012;47.562;18.414;2023-08-21T04:50:29;25.10;;;18.88;;
68192;SDS011;55012;47.562;18.414;2023-08-21T04:52:55;24.67;;;18.73;;
68192;SDS011;55012;47.562;18.414;2023-08-21T04:55:20;23.45;;;18.75;;
68192;SDS011;55012;47.562;18.414;2023-08-21T04:57:46;25.73;;;19.05;;
68192;SDS011;55012;47.562;18.414;2023-08-21T05:00:11;25.85;;;18.88;;
68192;SDS011;55012;47.562;18.414;2023-08-21T05:02:37;24.10;;;19.05;;
68192;SDS011;55012;47.562;18.414;2023-08-21T05:05:03;27.35;;;20.73;;
68192;SDS011;55012;47.562;18.414;2023-08-21T05:07:29;28.30;;;20.25;;
68192;SDS011;55012;47.562;18.414;2023-08-21T05:09:58;26.02;;;20.13;;
68192;SDS011;55012;47.562;18.414;2023-08-21T05:12:24;23.80;;;18.40;;
68192;SDS011;55012;47.562;18.414;2023-08-21T05:14:51;27.50;;;18.45;;
68192;SDS011;55012;47.562;18.414;2023-08-21T05:17:16;23.73;;;18.25;;
68192;SDS011;55012;47.562;18.414;2023-08-21T05:19:42;25.25;;;17.83;;
68192;SDS011;55012;47.562;18.414;2023-08-21T05:22:07;24.60;;;17.75;;
68192;SDS011;55012;47.562;18.414;2023-08-21T05:24:32;24.60;;;17.90;;
68192;SDS011;55012;47.562;18.414;2023-08-21T05:26:58;24.60;;;17.67;;
68192;SDS011;55012;47.562;18.414;2023-08-21T05:29:23;24.73;;;16.65;;
68192;SDS011;55012;47.562;18.414;2023-08-21T05:31:49;22.10;;;16.50;;
68192;SDS011;55012;47.562;18.414;2023-08-21T05:34:14;21.80;;;16.73;;
68192;SDS011;55012;47.562;18.414;2023-08-21T05:36:40;21.13;;;16.13;;
68192;SDS011;55012;47.562;18.414;2023-08-21T05:39:05;28.65;;;19.58;;
68192;SDS011;55012;47.562;18.414;2023-08-21T05:41:32;25.73;;;18.98;;
68192;SDS011;55012;47.562;18.414;2023-08-21T05:43:58;32.10;;;22.52;;
68192;SDS011;55012;47.562;18.414;2023-08-21T05:46:23;31.00;;;22.65;;
68192;SDS011;55012;47.562;18.414;2023-08-21T05:48:49;31.70;;;20.90;;
68192;SDS011;55012;47.562;18.414;2023-08-21T05:51:14;26.58;;;19.63;;
68192;SDS011;55012;47.562;18.414;2023-08-21T05:53:40;26.17;;;19.77;;
68192;SDS011;55012;47.562;18.414;2023-08-21T05:56:05;24.80;;;18.35;;
68192;SDS011;55012;47.562;18.414;2023-08-21T05:58:31;26.45;;;19.05;;
68192;SDS011;55012;47.562;18.414;2023-08-21T06:00:58;26.92;;;19.90;;
68192;SDS011;55012;47.562;18.414;2023-08-21T06:03:23;28.90;;;21.33;;
68192;SDS011;55012;47.562;18.414;2023-08-21T06:05:49;29.92;;;21.38;;
68192;SDS011;55012;47.562;18.414;2023-08-21T06:08:14;28.70;;;20.92;;
68192;SDS011;55012;47.562;18.414;2023-08-21T06:10:40;28.52;;;21.35;;
68192;SDS011;55012;47.562;18.414;2023-08-21T06:13:05;28.50;;;21.02;;
68192;SDS011;55012;47.562;18.414;2023-08-21T06:15:31;27.77;;;21.08;;
68192;SDS011;55012;47.562;18.414;2023-08-21T06:17:57;29.10;;;20.73;;
68192;SDS011;55012;47.562;18.414;2023-08-21T06:20:23;27.65;;;19.88;;
68192;SDS011;55012;47.562;18.414;2023-08-21T06:22:49;25.48;;;19.20;;
68192;SDS011;55012;47.562;18.414;2023-08-21T06:25:14;23.77;;;17.48;;
68192;SDS011;55012;47.562;18.414;2023-08-21T06:27:40;26.38;;;18.55;;
68192;SDS011;55012;47.562;18.414;2023-08-21T06:30:06;25.40;;;19.67;;
68192;SDS011;55012;47.562;18.414;2023-08-21T06:32:31;21.92;;;17.40;;
68192;SDS011;55012;47.562;18.414;2023-08-21T06:34:57;23.63;;;17.20;;
68192;SDS011;55012;47.562;18.414;2023-08-21T06:37:25;20.42;;;16.50;;
68192;SDS011;55012;47.562;18.414;2023-08-21T06:39:51;22.83;;;18.95;;
68192;SDS011;55012;47.562;18.414;2023-08-21T06:42:16;23.58;;;18.48;;
68192;SDS011;55012;47.562;18.414;2023-08-21T06:44:41;22.77;;;18.58;;
68192;SDS011;55012;47.562;18.414;2023-08-21T06:47:07;22.90;;;18.95;;
68192;SDS011;55012;47.562;18.414;2023-08-21T06:49:33;24.33;;;18.88;;
68192;SDS011;55012;47.562;18.414;2023-08-21T06:51:58;22.95;;;18.80;;
68192;SDS011;55012;47.562;18.414;2023-08-21T06:54:24;24.48;;;19.13;;
68192;SDS011;55012;47.562;18.414;2023-08-21T06:56:49;22.75;;;18.35;;
68192;SDS011;55012;47.562;18.414;2023-08-21T06:59:16;21.73;;;18.52;;
68192;SDS011;55012;47.562;18.414;2023-08-21T07:01:42;21.13;;;16.17;;
68192;SDS011;55012;47.562;18.414;2023-08-21T07:04:07;21.60;;;17.17;;
68192;SDS011;55012;47.562;18.414;2023-08-21T07:06:33;27.35;;;19.58;;
68192;SDS011;55012;47.562;18.414;2023-08-21T07:08:58;28.17;;;19.90;;
68192;SDS011;55012;47.562;18.414;2023-08-21T07:11:24;26.88;;;20.48;;
68192;SDS011;55012;47.562;18.414;2023-08-21T07:13:49;26.92;;;19.13;;
68192;SDS011;55012;47.562;18.414;2023-08-21T07:16:14;24.25;;;18.95;;
68192;SDS011;55012;47.562;18.414;2023-08-21T07:18:40;23.33;;;19.15;;
68192;SDS011;55012;47.562;18.414;2023-08-21T07:21:05;23.95;;;19.60;;
68192;SDS011;55012;47.562;18.414;2023-08-21T07:23:31;22.13;;;17.60;;
68192;SDS011;55012;47.562;18.414;2023-08-21T07:25:58;23.92;;;20.20;;
68192;SDS011;55012;47.562;18.414;2023-08-21T07:28:23;25.42;;;19.60;;
68192;SDS011;55012;47.562;18.414;2023-08-21T07:30:58;25.83;;;20.33;;
68192;SDS011;55012;47.562;18.414;2023-08-21T07:33:24;26.13;;;19.63;;
68192;SDS011;55012;47.562;18.414;2023-08-21T07:36:00;23.17;;;19.98;;
68192;SDS011;55012;47.562;18.414;2023-08-21T07:38:27;25.77;;;20.13;;
68192;SDS011;55012;47.562;18.414;2023-08-21T07:41:01;29.20;;;19.92;;
68192;SDS011;55012;47.562;18.414;2023-08-21T07:43:30;27.48;;;21.75;;
68192;SDS011;55012;47.562;18.414;2023-08-21T07:45:56;19.55;;;16.25;;
68192;SDS011;55012;47.562;18.414;2023-08-21T07:48:22;25.13;;;20.70;;
68192;SDS011;55012;47.562;18.414;2023-08-21T07:50:53;22.02;;;17.70;;
68192;SDS011;55012;47.562;18.414;2023-08-21T07:53:19;23.77;;;18.55;;
68192;SDS011;55012;47.562;18.414;2023-08-21T07:55:45;23.90;;;18.88;;
68192;SDS011;55012;47.562;18.414;2023-08-21T07:58:11;22.35;;;18.63;;
68192;SDS011;55012;47.562;18.414;2023-08-21T08:00:36;22.77;;;18.10;;
68192;SDS011;55012;47.562;18.414;2023-08-21T08:03:02;22.92;;;18.15;;
68192;SDS011;55012;47.562;18.414;2023-08-21T08:05:28;25.70;;;18.77;;
68192;SDS011;55012;47.562;18.414;2023-08-21T08:07:54;23.85;;;18.45;;
68192;SDS011;55012;47.562;18.414;2023-08-21T08:10:19;22.85;;;18.40;;
68192;SDS011;55012;47.562;18.414;2023-08-21T08:12:45;25.27;;;18.85;;
68192;SDS011;55012;47.562;18.414;2023-08-21T08:15:10;21.95;;;17.92;;
68192;SDS011;55012;47.562;18.414;2023-08-21T08:17:35;21.92;;;17.98;;
68192;SDS011;55012;47.562;18.414;2023-08-21T08:20:01;22.20;;;17.48;;
68192;SDS011;55012;47.562;18.414;2023-08-21T08:22:27;21.83;;;17.70;;
68192;SDS011;55012;47.562;18.414;2023-08-21T08:24:52;20.40;;;17.10;;
68192;SDS011;55012;47.562;18.414;2023-08-21T08:27:18;19.95;;;17.13;;
68192;SDS011;55012;47.562;18.414;2023-08-21T08:29:43;20.85;;;17.92;;
68192;SDS011;55012;47.562;18.414;2023-08-21T08:32:08;19.67;;;16.40;;
68192;SDS011;55012;47.562;18.414;2023-08-21T08:34:34;22.00;;;17.73;;
68192;SDS011;55012;47.562;18.414;2023-08-21T08:36:59;22.45;;;18.05;;
68192;SDS011;55012;47.562;18.414;2023-08-21T08:39:25;22.92;;;17.55;;
68192;SDS011;55012;47.562;18.414;2023-08-21T08:41:54;20.30;;;15.45;;
68192;SDS011;55012;47.562;18.414;2023-08-21T08:44:24;19.48;;;15.68;;
68192;SDS011;55012;47.562;18.414;2023-08-21T08:46:52;18.60;;;16.25;;
68192;SDS011;55012;47.562;18.414;2023-08-21T08:49:18;20.40;;;16.50;;
68192;SDS011;55012;47.562;18.414;2023-08-21T08:51:45;20.33;;;16.90;;
68192;SDS011;55012;47.562;18.414;2023-08-21T08:54:13;19.77;;;15.50;;
68192;SDS011;55012;47.562;18.414;2023-08-21T08:56:40;18.30;;;15.48;;
68192;SDS011;55012;47.562;18.414;2023-08-21T08:59:07;17.25;;;15.25;;
68192;SDS011;55012;47.562;18.414;2023-08-21T09:01:33;19.65;;;15.68;;
68192;SDS011;55012;47.562;18.414;2023-08-21T09:03:58;20.65;;;16.05;;
68192;SDS011;55012;47.562;18.414;2023-08-21T09:06:25;19.45;;;14.75;;
68192;SDS011;55012;47.562;18.414;2023-08-21T09:08:54;19.48;;;14.55;;
68192;SDS011;55012;47.562;18.414;2023-08-21T09:11:21;16.30;;;13.77;;
68192;SDS011;55012;47.562;18.414;2023-08-21T09:13:48;19.63;;;14.00;;
68192;SDS011;55012;47.562;18.414;2023-08-21T09:16:15;20.90;;;13.75;;
68192;SDS011;55012;47.562;18.414;2023-08-21T09:18:48;18.83;;;14.13;;
68192;SDS011;55012;47.562;18.414;2023-08-21T09:21:15;15.23;;;12.50;;
68192;SDS011;55012;47.562;18.414;2023-08-21T09:23:42;15.88;;;14.18;;
68192;SDS011;55012;47.562;18.414;2023-08-21T09:26:07;16.48;;;14.38;;
68192;SDS011;55012;47.562;18.414;2023-08-21T09:28:33;14.30;;;11.68;;
68192;SDS011;55012;47.562;18.414;2023-08-21T09:30:59;15.57;;;13.13;;
68192;SDS011;55012;47.562;18.414;2023-08-21T09:33:27;14.48;;;12.77;;
68192;SDS011;55012;47.562;18.414;2023-08-21T09:35:53;15.75;;;12.93;;
68192;SDS011;55012;47.562;18.414;2023-08-21T09:38:20;15.88;;;12.20;;
68192;SDS011;55012;47.562;18.414;2023-08-21T09:40:53;13.57;;;12.02;;
68192;SDS011;55012;47.562;18.414;2023-08-21T09:43:20;12.18;;;10.90;;
68192;SDS011;55012;47.562;18.414;2023-08-21T09:45:47;13.52;;;12.13;;
68192;SDS011;55012;47.562;18.414;2023-08-21T09:48:17;15.88;;;11.30;;
68192;SDS011;55012;47.562;18.414;2023-08-21T09:50:43;11.65;;;10.45;;
68192;SDS011;55012;47.562;18.414;2023-08-21T09:53:09;12.85;;;11.23;;
68192;SDS011;55012;47.562;18.414;2023-08-21T09:55:36;13.85;;;11.75;;
68192;SDS011;55012;47.562;18.414;2023-08-21T09:58:04;12.90;;;11.57;;
68192;SDS011;55012;47.562;18.414;2023-08-21T10:00:30;13.73;;;11.57;;
68192;SDS011;55012;47.562;18.414;2023-08-21T10:03:00;13.07;;;11.38;;
68192;SDS011;55012;47.562;18.414;2023-08-21T10:05:31;12.82;;;10.57;;
68192;SDS011;55012;47.562;18.414;2023-08-21T10:07:58;10.68;;;9.57;;
68192;SDS011;55012;47.562;18.414;2023-08-21T10:10:28;12.45;;;10.68;;
68192;SDS011;55012;47.562;18.414;2023-08-21T10:12:55;15.82;;;10.65;;
68192;SDS011;55012;47.562;18.414;2023-08-21T10:15:21;12.50;;;11.30;;
68192;SDS011;55012;47.562;18.414;2023-08-21T10:17:47;12.52;;;10.68;;
68192;SDS011;55012;47.562;18.414;2023-08-21T10:20:14;12.20;;;10.90;;
68192;SDS011;55012;47.562;18.414;2023-08-21T10:22:49;13.57;;;11.00;;
68192;SDS011;55012;47.562;18.414;2023-08-21T10:25:22;14.82;;;11.07;;
68192;SDS011;55012;47.562;18.414;2023-08-21T10:27:54;12.77;;;10.77;;
68192;SDS011;55012;47.562;18.414;2023-08-21T10:30:25;14.45;;;10.75;;
68192;SDS011;55012;47.562;18.414;2023-08-21T10:32:53;12.25;;;10.73;;
68192;SDS011;55012;47.562;18.414;2023-08-21T10:35:23;11.55;;;10.35;;
68192;SDS011;55012;47.562;18.414;2023-08-21T10:38:09;11.90;;;10.40;;
68192;SDS011;55012;47.562;18.414;2023-08-21T10:40:38;11.57;;;10.35;;
68192;SDS011;55012;47.562;18.414;2023-08-21T10:43:12;11.82;;;10.13;;
68192;SDS011;55012;47.562;18.414;2023-08-21T10:46:02;11.70;;;10.50;;
68192;SDS011;55012;47.562;18.414;2023-08-21T10:48:28;12.32;;;10.43;;
68192;SDS011;55012;47.562;18.414;2023-08-21T10:50:54;12.13;;;10.20;;
68192;SDS011;55012;47.562;18.414;2023-08-21T10:53:20;12.27;;;10.35;;
68192;SDS011;55012;47.562;18.414;2023-08-21T10:55:54;12.10;;;10.68;;
68192;SDS011;55012;47.562;18.414;2023-08-21T10:58:20;13.57;;;10.68;;
68192;SDS011;55012;47.562;18.414;2023-08-21T11:00:46;12.02;;;10.77;;
68192;SDS011;55012;47.562;18.414;2023-08-21T11:03:11;11.90;;;10.70;;
68192;SDS011;55012;47.562;18.414;2023-08-21T11:05:37;12.30;;;11.05;;
68192;SDS011;55012;47.562;18.414;2023-08-21T11:08:02;12.30;;;10.65;;
68192;SDS011;55012;47.562;18.414;2023-08-21T11:10:30;12.43;;;10.55;;
68192;SDS011;55012;47.562;18.414;2023-08-21T11:12:57;11.95;;;10.75;;
68192;SDS011;55012;47.562;18.414;2023-08-21T11:15:27;11.23;;;10.13;;
68192;SDS011;55012;47.562;18.414;2023-08-21T11:17:54;12.23;;;10.75;;
68192;SDS011;55012;47.562;18.414;2023-08-21T11:20:22;12.30;;;10.68;;
68192;SDS011;55012;47.562;18.414;2023-08-21T11:22:56;11.63;;;10.45;;
68192;SDS011;55012;47.562;18.414;2023-08-21T11:25:22;11.75;;;10.07;;
68192;SDS011;55012;47.562;18.414;2023-08-21T11:27:48;11.50;;;10.32;;
68192;SDS011;55012;47.562;18.414;2023-08-21T11:30:13;11.73;;;10.50;;
68192;SDS011;55012;47.562;18.414;2023-08-21T11:32:39;12.60;;;11.30;;
68192;SDS011;55012;47.562;18.414;2023-08-21T11:35:04;13.00;;;11.60;;
68192;SDS011;55012;47.562;18.414;2023-08-21T11:37:30;12.82;;;11.00;;
68192;SDS011;55012;47.562;18.414;2023-08-21T11:39:57;11.95;;;10.75;;
68192;SDS011;55012;47.562;18.414;2023-08-21T11:42:30;12.60;;;11.40;;
68192;SDS011;55012;47.562;18.414;2023-08-21T11:44:57;12.35;;;11.10;;
68192;SDS011;55012;47.562;18.414;2023-08-21T11:47:23;11.35;;;9.93;;
68192;SDS011;55012;47.562;18.414;2023-08-21T11:49:49;11.02;;;9.73;;
68192;SDS011;55012;47.562;18.414;2023-08-21T11:52:19;12.55;;;11.07;;
68192;SDS011;55012;47.562;18.414;2023-08-21T11:54:50;12.20;;;10.80;;
68192;SDS011;55012;47.562;18.414;2023-08-21T11:57:16;13.90;;;11.00;;
68192;SDS011;55012;47.562;18.414;2023-08-21T11:59:53;11.60;;;10.35;;
68192;SDS011;55012;47.562;18.414;2023-08-21T12:02:26;10.98;;;9.77;;
68192;SDS011;55012;47.562;18.414;2023-08-21T12:04:54;12.47;;;10.70;;
68192;SDS011;55012;47.562;18.414;2023-08-21T12:07:25;11.55;;;10.45;;
68192;SDS011;55012;47.562;18.414;2023-08-21T12:09:51;10.82;;;9.70;;
68192;SDS011;55012;47.562;18.414;2023-08-21T12:12:16;11.13;;;9.50;;
68192;SDS011;55012;47.562;18.414;2023-08-21T12:14:42;11.18;;;9.98;;
68192;SDS011;55012;47.562;18.414;2023-08-21T12:17:08;11.40;;;10.20;;
68192;SDS011;55012;47.562;18.414;2023-08-21T12:19:33;11.23;;;10.13;;
68192;SDS011;55012;47.562;18.414;2023-08-21T12:21:59;11.70;;;9.63;;
68192;SDS011;55012;47.562;18.414;2023-08-21T12:24:24;12.15;;;10.82;;
68192;SDS011;55012;47.562;18.414;2023-08-21T12:26:50;13.63;;;10.02;;
68192;SDS011;55012;47.562;18.414;2023-08-21T12:29:15;12.15;;;10.75;;
68192;SDS011;55012;47.562;18.414;2023-08-21T12:31:41;11.35;;;10.13;;
68192;SDS011;55012;47.562;18.414;2023-08-21T12:34:06;11.02;;;9.93;;
68192;SDS011;55012;47.562;18.414;2023-08-21T12:36:35;11.95;;;10.13;;
68192;SDS011;55012;47.562;18.414;2023-08-21T12:39:05;11.43;;;10.32;;
68192;SDS011;55012;47.562;18.414;2023-08-21T12:41:31;11.98;;;10.25;;
68192;SDS011;55012;47.562;18.414;2023-08-21T12:44:01;11.70;;;10.50;;
68192;SDS011;55012;47.562;18.414;2023-08-21T12:46:33;11.65;;;10.40;;
68192;SDS011;55012;47.562;18.414;2023-08-21T12:49:00;11.35;;;10.25;;
68192;SDS011;55012;47.562;18.414;2023-08-21T12:51:26;13.20;;;10.50;;
68192;SDS011;55012;47.562;18.414;2023-08-21T12:53:52;15.02;;;10.38;;
68192;SDS011;55012;47.562;18.414;2023-08-21T12:56:18;11.27;;;10.10;;
68192;SDS011;55012;47.562;18.414;2023-08-21T12:58:43;11.98;;;10.45;;
68192;SDS011;55012;47.562;18.414;2023-08-21T13:01:10;11.48;;;10.18;;
68192;SDS011;55012;47.562;18.414;2023-08-21T13:03:36;11.35;;;10.07;;
68192;SDS011;55012;47.562;18.414;2023-08-21T13:06:01;10.98;;;9.88;;
68192;SDS011;55012;47.562;18.414;2023-08-21T13:08:27;11.50;;;9.05;;
68192;SDS011;55012;47.562;18.414;2023-08-21T13:10:52;11.20;;;9.48;;
68192;SDS011;55012;47.562;18.414;2023-08-21T13:13:18;10.55;;;9.45;;
68192;SDS011;55012;47.562;18.414;2023-08-21T13:15:43;10.75;;;9.65;;
68192;SDS011;55012;47.562;18.414;2023-08-21T13:18:12;12.18;;;9.40;;
68192;SDS011;55012;47.562;18.414;2023-08-21T13:20:42;11.73;;;9.30;;
68192;SDS011;55012;47.562;18.414;2023-08-21T13:23:08;10.73;;;9.23;;
68192;SDS011;55012;47.562;18.414;2023-08-21T13:25:33;11.05;;;9.30;;
68192;SDS011;55012;47.562;18.414;2023-08-21T13:28:00;10.18;;;9.18;;
68192;SDS011;55012;47.562;18.414;2023-08-21T13:30:27;10.38;;;8.50;;
68192;SDS011;55012;47.562;18.414;2023-08-21T13:32:52;8.88;;;8.07;;
68192;SDS011;55012;47.562;18.414;2023-08-21T13:35:18;10.10;;;8.10;;
68192;SDS011;55012;47.562;18.414;2023-08-21T13:37:45;8.65;;;7.82;;
68192;SDS011;55012;47.562;18.414;2023-08-21T13:40:11;10.57;;;8.50;;
68192;SDS011;55012;47.562;18.414;2023-08-21T13:42:39;12.65;;;8.30;;
68192;SDS011;55012;47.562;18.414;2023-08-21T13:45:09;9.45;;;8.32;;
68192;SDS011;55012;47.562;18.414;2023-08-21T13:47:41;11.88;;;9.00;;
68192;SDS011;55012;47.562;18.414;2023-08-21T13:50:08;9.55;;;8.65;;
68192;SDS011;55012;47.562;18.414;2023-08-21T13:52:34;9.48;;;8.57;;
68192;SDS011;55012;47.562;18.414;2023-08-21T13:55:00;11.07;;;8.88;;
68192;SDS011;55012;47.562;18.414;2023-08-21T13:57:27;9.32;;;8.43;;
68192;SDS011;55012;47.562;18.414;2023-08-21T13:59:53;9.48;;;8.57;;
68192;SDS011;55012;47.562;18.414;2023-08-21T14:02:19;9.15;;;8.27;;
68192;SDS011;55012;47.562;18.414;2023-08-21T14:04:45;8.98;;;7.70;;
68192;SDS011;55012;47.562;18.414;2023-08-21T14:07:11;8.73;;;7.93;;
68192;SDS011;55012;47.562;18.414;2023-08-21T14:09:37;9.35;;;7.93;;